sensor_id;sensor_type;location;lat;lon;timestamp;temperature;humidity
80236;DHT22;69543;42.138;24.742;2023-04-19T15:46:21;21.50;36.40
80236;DHT22;69543;42.138;24.742;2023-04-19T15:48:47;21.90;37.30
80236;DHT22;69543;42.138;24.742;2023-04-19T15:51:13;22.00;37.00
80236;DHT22;69543;42.138;24.742;2023-04-19T15:53:40;22.10;36.70
80236;DHT22;69543;42.138;24.742;2023-04-19T15:56:06;22.10;36.40
80236;DHT22;69543;42.138;24.742;2023-04-19T15:58:32;22.20;36.20
80236;DHT22;69543;42.138;24.742;2023-04-19T16:00:58;22.20;36.00
80236;DHT22;69543;42.138;24.742;2023-04-19T16:03:24;22.30;35.80
80236;DHT22;69543;42.138;24.742;2023-04-19T16:05:50;22.30;35.70
80236;DHT22;69543;42.138;24.742;2023-04-19T16:08:17;22.30;35.60
80236;DHT22;69543;42.138;24.742;2023-04-19T16:10:48;22.30;35.50
80236;DHT22;69543;42.138;24.742;2023-04-19T16:13:14;22.40;35.40
80236;DHT22;69543;42.138;24.742;2023-04-19T16:15:43;22.30;35.20
80236;DHT22;69543;42.138;24.742;2023-04-19T16:18:10;22.30;35.30
80236;DHT22;69543;42.138;24.742;2023-04-19T16:20:37;22.30;35.30
80236;DHT22;69543;42.138;24.742;2023-04-19T16:23:03;22.40;35.20
80236;DHT22;69543;42.138;24.742;2023-04-19T16:25:30;22.30;35.10
80236;DHT22;69543;42.138;24.742;2023-04-19T16:27:56;22.30;35.10
80236;DHT22;69543;42.138;24.742;2023-04-19T16:30:22;22.40;35.10
80236;DHT22;69543;42.138;24.742;2023-04-19T16:32:48;22.40;35.10
80236;DHT22;69543;42.138;24.742;2023-04-19T16:35:14;22.30;35.00
80236;DHT22;69543;42.138;24.742;2023-04-19T16:37:42;22.30;35.00
80236;DHT22;69543;42.138;24.742;2023-04-19T16:40:09;22.30;34.90
80236;DHT22;69543;42.138;24.742;2023-04-19T16:42:37;22.30;34.90
80236;DHT22;69543;42.138;24.742;2023-04-19T16:45:03;22.30;34.90
80236;DHT22;69543;42.138;24.742;2023-04-19T16:47:29;22.30;34.80
80236;DHT22;69543;42.138;24.742;2023-04-19T16:49:59;22.30;34.90
80236;DHT22;69543;42.138;24.742;2023-04-19T16:52:26;22.30;34.80
80236;DHT22;69543;42.138;24.742;2023-04-19T16:54:54;22.30;34.80
80236;DHT22;69543;42.138;24.742;2023-04-19T16:57:21;22.30;34.80
80236;DHT22;69543;42.138;24.742;2023-04-19T16:59:49;22.30;34.80
80236;DHT22;69543;42.138;24.742;2023-04-19T17:02:15;22.30;34.70
80236;DHT22;69543;42.138;24.742;2023-04-19T17:04:41;22.30;34.70
80236;DHT22;69543;42.138;24.742;2023-04-19T17:07:07;22.30;34.70
80236;DHT22;69543;42.138;24.742;2023-04-19T17:09:34;22.30;34.60
80236;DHT22;69543;42.138;24.742;2023-04-19T17:12:00;22.30;34.60
80236;DHT22;69543;42.138;24.742;2023-04-19T17:14:26;22.30;34.60
80236;DHT22;69543;42.138;24.742;2023-04-19T17:16:53;22.30;34.60
80236;DHT22;69543;42.138;24.742;2023-04-19T17:19:21;22.30;34.60
80236;DHT22;69543;42.138;24.742;2023-04-19T17:21:47;22.30;34.60
80236;DHT22;69543;42.138;24.742;2023-04-19T17:24:13;22.20;34.60
80236;DHT22;69543;42.138;24.742;2023-04-19T17:26:38;22.20;34.60
80236;DHT22;69543;42.138;24.742;2023-04-19T17:29:04;22.30;34.50
80236;DHT22;69543;42.138;24.742;2023-04-19T17:31:33;22.20;34.50
80236;DHT22;69543;42.138;24.742;2023-04-19T17:33:59;22.30;34.60
80236;DHT22;69543;42.138;24.742;2023-04-19T17:36:25;22.30;34.50
80236;DHT22;69543;42.138;24.742;2023-04-19T17:38:52;22.20;34.40
80236;DHT22;69543;42.138;24.742;2023-04-19T17:41:18;22.20;34.50
80236;DHT22;69543;42.138;24.742;2023-04-19T17:43:45;22.20;34.40
80236;DHT22;69543;42.138;24.742;2023-04-19T17:46:12;22.20;34.50
80236;DHT22;69543;42.138;24.742;2023-04-19T17:48:39;22.20;34.40
80236;DHT22;69543;42.138;24.742;2023-04-19T17:51:05;22.20;34.50
80236;DHT22;69543;42.138;24.742;2023-04-19T17:53:32;22.20;34.40
80236;DHT22;69543;42.138;24.742;2023-04-19T17:55:58;22.20;34.40
80236;DHT22;69543;42.138;24.742;2023-04-19T17:58:24;22.20;34.50
80236;DHT22;69543;42.138;24.742;2023-04-19T18:00:50;22.20;34.40
80236;DHT22;69543;42.138;24.742;2023-04-19T18:03:16;22.20;34.40
80236;DHT22;69543;42.138;24.742;2023-04-19T18:05:42;22.30;34.50
80236;DHT22;69543;42.138;24.742;2023-04-19T18:08:08;22.20;34.40
80236;DHT22;69543;42.138;24.742;2023-04-19T18:10:34;22.20;34.40
80236;DHT22;69543;42.138;24.742;2023-04-19T18:13:00;22.20;34.40
80236;DHT22;69543;42.138;24.742;2023-04-19T18:15:26;22.20;34.40
80236;DHT22;69543;42.138;24.742;2023-04-19T18:17:52;22.20;34.40
80236;DHT22;69543;42.138;24.742;2023-04-19T18:20:18;22.20;34.40
80236;DHT22;69543;42.138;24.742;2023-04-19T18:22:50;22.20;34.40
80236;DHT22;69543;42.138;24.742;2023-04-19T18:25:17;22.20;34.40
80236;DHT22;69543;42.138;24.742;2023-04-19T18:27:43;22.20;34.50
80236;DHT22;69543;42.138;24.742;2023-04-19T18:30:09;22.20;34.50
80236;DHT22;69543;42.138;24.742;2023-04-19T18:32:35;22.20;34.50
80236;DHT22;69543;42.138;24.742;2023-04-19T18:35:01;22.10;34.40
80236;DHT22;69543;42.138;24.742;2023-04-19T18:37:30;22.10;34.40
80236;DHT22;69543;42.138;24.742;2023-04-19T18:39:56;22.10;34.50
80236;DHT22;69543;42.138;24.742;2023-04-19T18:42:22;22.10;34.40
80236;DHT22;69543;42.138;24.742;2023-04-19T18:44:50;22.10;34.40
80236;DHT22;69543;42.138;24.742;2023-04-19T18:47:15;22.10;34.40
80236;DHT22;69543;42.138;24.742;2023-04-19T18:49:41;22.10;34.40
80236;DHT22;69543;42.138;24.742;2023-04-19T18:52:07;22.10;34.50
80236;DHT22;69543;42.138;24.742;2023-04-19T18:54:33;22.10;34.50
80236;DHT22;69543;42.138;24.742;2023-04-19T18:56:58;22.10;34.50
80236;DHT22;69543;42.138;24.742;2023-04-19T18:59:25;22.10;34.50
80236;DHT22;69543;42.138;24.742;2023-04-19T19:01:56;22.10;34.50
80236;DHT22;69543;42.138;24.742;2023-04-19T19:04:22;22.10;34.50
80236;DHT22;69543;42.138;24.742;2023-04-19T19:06:48;22.10;34.50
80236;DHT22;69543;42.138;24.742;2023-04-19T19:09:15;22.10;34.50
80236;DHT22;69543;42.138;24.742;2023-04-19T19:11:41;22.10;34.60
80236;DHT22;69543;42.138;24.742;2023-04-19T19:14:07;22.10;34.50
80236;DHT22;69543;42.138;24.742;2023-04-19T19:16:33;22.10;34.50
80236;DHT22;69543;42.138;24.742;2023-04-19T19:18:58;22.10;34.50
80236;DHT22;69543;42.138;24.742;2023-04-19T19:21:26;22.10;35.60
80236;DHT22;69543;42.138;24.742;2023-04-19T19:23:53;22.00;34.40
80236;DHT22;69543;42.138;24.742;2023-04-19T19:26:21;22.00;34.40
80236;DHT22;69543;42.138;24.742;2023-04-19T19:28:47;22.10;34.50
80236;DHT22;69543;42.138;24.742;2023-04-19T19:31:13;22.00;34.50
80236;DHT22;69543;42.138;24.742;2023-04-19T19:33:39;22.10;34.50
80236;DHT22;69543;42.138;24.742;2023-04-19T19:36:04;22.00;34.50
80236;DHT22;69543;42.138;24.742;2023-04-19T19:38:30;22.00;34.40
80236;DHT22;69543;42.138;24.742;2023-04-19T19:40:56;22.00;34.40
80236;DHT22;69543;42.138;24.742;2023-04-19T19:43:22;22.00;34.50
80236;DHT22;69543;42.138;24.742;2023-04-19T19:45:47;22.00;34.50
80236;DHT22;69543;42.138;24.742;2023-04-19T19:48:13;22.00;34.50
80236;DHT22;69543;42.138;24.742;2023-04-19T19:50:39;22.00;34.50
80236;DHT22;69543;42.138;24.742;2023-04-19T19:53:08;22.00;34.50
80236;DHT22;69543;42.138;24.742;2023-04-19T19:55:33;22.00;34.50
80236;DHT22;69543;42.138;24.742;2023-04-19T19:57:59;22.00;34.50
80236;DHT22;69543;42.138;24.742;2023-04-19T20:00:25;22.00;34.50
80236;DHT22;69543;42.138;24.742;2023-04-19T20:02:51;22.00;34.50
80236;DHT22;69543;42.138;24.742;2023-04-19T20:05:17;22.00;34.60
80236;DHT22;69543;42.138;24.742;2023-04-19T20:07:43;22.00;34.60
80236;DHT22;69543;42.138;24.742;2023-04-19T20:10:10;22.00;34.50
80236;DHT22;69543;42.138;24.742;2023-04-19T20:12:39;22.00;34.50
80236;DHT22;69543;42.138;24.742;2023-04-19T20:15:05;22.00;34.50
80236;DHT22;69543;42.138;24.742;2023-04-19T20:17:32;22.00;34.60
80236;DHT22;69543;42.138;24.742;2023-04-19T20:19:58;22.00;34.60
80236;DHT22;69543;42.138;24.742;2023-04-19T20:22:27;22.00;34.60
80236;DHT22;69543;42.138;24.742;2023-04-19T20:24:52;22.00;34.60
80236;DHT22;69543;42.138;24.742;2023-04-19T20:27:18;21.90;34.50
80236;DHT22;69543;42.138;24.742;2023-04-19T20:29:44;22.00;34.60
80236;DHT22;69543;42.138;24.742;2023-04-19T20:32:10;21.90;34.60
80236;DHT22;69543;42.138;24.742;2023-04-19T20:34:35;21.90;34.60
80236;DHT22;69543;42.138;24.742;2023-04-19T20:37:02;22.00;34.60
80236;DHT22;69543;42.138;24.742;2023-04-19T20:39:28;22.00;34.50
80236;DHT22;69543;42.138;24.742;2023-04-19T20:41:54;21.90;34.50
80236;DHT22;69543;42.138;24.742;2023-04-19T20:44:20;22.00;34.60
80236;DHT22;69543;42.138;24.742;2023-04-19T20:46:48;22.00;34.60
80236;DHT22;69543;42.138;24.742;2023-04-19T20:49:15;21.90;34.50
80236;DHT22;69543;42.138;24.742;2023-04-19T20:51:41;22.00;34.50
80236;DHT22;69543;42.138;24.742;2023-04-19T20:54:07;21.90;34.50
80236;DHT22;69543;42.138;24.742;2023-04-19T20:56:33;21.90;34.50
80236;DHT22;69543;42.138;24.742;2023-04-19T20:58:59;22.00;34.60
80236;DHT22;69543;42.138;24.742;2023-04-19T21:01:25;21.90;34.50
80236;DHT22;69543;42.138;24.742;2023-04-19T21:03:50;21.90;34.50
80236;DHT22;69543;42.138;24.742;2023-04-19T21:06:18;21.90;34.50
80236;DHT22;69543;42.138;24.742;2023-04-19T21:08:44;22.00;34.60
80236;DHT22;69543;42.138;24.742;2023-04-19T21:11:10;22.00;34.60
80236;DHT22;69543;42.138;24.742;2023-04-19T21:13:36;22.00;34.60
80236;DHT22;69543;42.138;24.742;2023-04-19T21:16:01;21.90;34.50
80236;DHT22;69543;42.138;24.742;2023-04-19T21:18:27;21.90;34.50
80236;DHT22;69543;42.138;24.742;2023-04-19T21:20:55;22.00;34.60
80236;DHT22;69543;42.138;24.742;2023-04-19T21:23:21;22.00;34.60
80236;DHT22;69543;42.138;24.742;2023-04-19T21:25:46;21.90;34.50
80236;DHT22;69543;42.138;24.742;2023-04-19T21:28:12;21.90;34.60
80236;DHT22;69543;42.138;24.742;2023-04-19T21:30:38;21.90;34.50
80236;DHT22;69543;42.138;24.742;2023-04-19T21:33:05;21.90;34.50
80236;DHT22;69543;42.138;24.742;2023-04-19T21:35:32;22.00;34.60
80236;DHT22;69543;42.138;24.742;2023-04-19T21:37:58;21.90;34.50
80236;DHT22;69543;42.138;24.742;2023-04-19T21:40:23;21.90;35.00
80236;DHT22;69543;42.138;24.742;2023-04-19T21:42:49;21.90;34.50
80236;DHT22;69543;42.138;24.742;2023-04-19T21:45:15;21.90;34.50
80236;DHT22;69543;42.138;24.742;2023-04-19T21:47:41;21.90;34.50
80236;DHT22;69543;42.138;24.742;2023-04-19T21:50:07;21.90;34.50
80236;DHT22;69543;42.138;24.742;2023-04-19T21:52:33;21.90;34.50
80236;DHT22;69543;42.138;24.742;2023-04-19T21:54:59;21.90;34.50
80236;DHT22;69543;42.138;24.742;2023-04-19T21:57:24;21.90;34.50
80236;DHT22;69543;42.138;24.742;2023-04-19T21:59:52;21.90;34.50
80236;DHT22;69543;42.138;24.742;2023-04-19T22:02:17;21.90;34.50
80236;DHT22;69543;42.138;24.742;2023-04-19T22:04:43;21.90;34.60
80236;DHT22;69543;42.138;24.742;2023-04-19T22:07:10;21.90;34.60
80236;DHT22;69543;42.138;24.742;2023-04-19T22:09:37;21.90;34.60
80236;DHT22;69543;42.138;24.742;2023-04-19T22:12:04;21.90;34.50
80236;DHT22;69543;42.138;24.742;2023-04-19T22:14:30;21.90;34.60
80236;DHT22;69543;42.138;24.742;2023-04-19T22:16:56;21.90;34.50
80236;DHT22;69543;42.138;24.742;2023-04-19T22:19:23;21.90;34.50
80236;DHT22;69543;42.138;24.742;2023-04-19T22:21:49;21.90;34.60
80236;DHT22;69543;42.138;24.742;2023-04-19T22:24:15;21.90;34.50
80236;DHT22;69543;42.138;24.742;2023-04-19T22:26:41;21.90;34.50
80236;DHT22;69543;42.138;24.742;2023-04-19T22:29:07;21.90;34.60
80236;DHT22;69543;42.138;24.742;2023-04-19T22:31:33;21.90;34.60
80236;DHT22;69543;42.138;24.742;2023-04-19T22:34:02;21.90;34.70
80236;DHT22;69543;42.138;24.742;2023-04-19T22:36:28;21.90;34.60
80236;DHT22;69543;42.138;24.742;2023-04-19T22:38:53;21.90;34.50
80236;DHT22;69543;42.138;24.742;2023-04-19T22:41:19;21.90;34.60
80236;DHT22;69543;42.138;24.742;2023-04-19T22:43:45;21.90;34.60
80236;DHT22;69543;42.138;24.742;2023-04-19T22:46:11;21.90;34.60
80236;DHT22;69543;42.138;24.742;2023-04-19T22:48:37;21.90;34.60
80236;DHT22;69543;42.138;24.742;2023-04-19T22:51:03;21.90;34.70
80236;DHT22;69543;42.138;24.742;2023-04-19T22:53:29;21.90;34.60
80236;DHT22;69543;42.138;24.742;2023-04-19T22:55:55;21.90;34.70
80236;DHT22;69543;42.138;24.742;2023-04-19T22:58:21;21.80;34.60
80236;DHT22;69543;42.138;24.742;2023-04-19T23:00:47;21.80;34.60
80236;DHT22;69543;42.138;24.742;2023-04-19T23:03:12;21.80;34.50
80236;DHT22;69543;42.138;24.742;2023-04-19T23:05:38;21.90;34.60
80236;DHT22;69543;42.138;24.742;2023-04-19T23:08:06;21.80;34.60
80236;DHT22;69543;42.138;24.742;2023-04-19T23:10:31;21.80;34.60
80236;DHT22;69543;42.138;24.742;2023-04-19T23:13:02;21.80;34.60
80236;DHT22;69543;42.138;24.742;2023-04-19T23:15:31;21.80;34.60
80236;DHT22;69543;42.138;24.742;2023-04-19T23:17:57;21.80;34.60
80236;DHT22;69543;42.138;24.742;2023-04-19T23:20:24;21.80;34.60
80236;DHT22;69543;42.138;24.742;2023-04-19T23:22:49;21.80;34.60
80236;DHT22;69543;42.138;24.742;2023-04-19T23:25:16;21.80;34.60
80236;DHT22;69543;42.138;24.742;2023-04-19T23:27:41;21.80;34.70
80236;DHT22;69543;42.138;24.742;2023-04-19T23:30:07;21.80;34.60
80236;DHT22;69543;42.138;24.742;2023-04-19T23:32:36;21.80;34.70
80236;DHT22;69543;42.138;24.742;2023-04-19T23:35:02;21.80;34.70
80236;DHT22;69543;42.138;24.742;2023-04-19T23:37:28;21.80;34.60
80236;DHT22;69543;42.138;24.742;2023-04-19T23:39:53;21.80;34.60
80236;DHT22;69543;42.138;24.742;2023-04-19T23:42:19;21.80;34.60
80236;DHT22;69543;42.138;24.742;2023-04-19T23:44:45;21.80;34.60
80236;DHT22;69543;42.138;24.742;2023-04-19T23:47:11;21.80;34.70
80236;DHT22;69543;42.138;24.742;2023-04-19T23:49:36;21.80;34.60
80236;DHT22;69543;42.138;24.742;2023-04-19T23:52:02;21.80;34.70
80236;DHT22;69543;42.138;24.742;2023-04-19T23:54:28;21.80;34.70
80236;DHT22;69543;42.138;24.742;2023-04-19T23:56:54;21.80;34.60
80236;DHT22;69543;42.138;24.742;2023-04-19T23:59:23;21.80;34.60
